Time,TemperatureF,DewpointF,PressureIn,WindDirection,WindDirectionDegrees,WindSpeedMPH,WindSpeedGustMPH,Humidity,HourlyPrecipIn,Conditions,Clouds,dailyrainin,SoftwareType,DateUTC
2013-02-20 00:00:00,33.4,23.6,29.85,WNW,301,3.0,22.0,67,0.00,,,0.12,Wunderground v.1.15,2013-02-20 05:00:00,
2013-02-20 00:05:00,33.2,23.1,29.85,WNW,294,0.0,10.0,66,0.00,,,0.00,Wunderground v.1.15,2013-02-20 05:05:00,
2013-02-20 00:10:00,33.3,23.5,29.85,WSW,257,3.0,7.0,67,0.00,,,0.00,Wunderground v.1.15,2013-02-20 05:10:00,
2013-02-20 00:15:00,33.5,23.4,29.85,NW,304,5.0,17.0,66,0.00,,,0.00,Wunderground v.1.15,2013-02-20 05:15:00,
2013-02-20 00:20:00,33.6,23.4,29.85,WNW,293,7.0,7.0,66,0.00,,,0.00,Wunderground v.1.15,2013-02-20 05:20:00,
2013-02-20 00:25:00,33.7,24.3,29.85,West,268,15.0,15.0,68,0.00,,,0.00,Wunderground v.1.15,2013-02-20 05:25:00,
2013-02-20 00:30:00,33.4,24.7,29.85,West,259,14.0,14.0,70,0.00,,,0.00,Wunderground v.1.15,2013-02-20 05:30:00,
2013-02-20 00:35:00,33.1,24.7,29.85,NW,305,2.0,20.0,71,0.00,,,0.00,Wunderground v.1.15,2013-02-20 05:35:00,
2013-02-20 00:40:00,32.8,24.4,29.85,WNW,299,7.0,12.0,71,0.00,,,0.00,Wunderground v.1.15,2013-02-20 05:40:00,
2013-02-20 00:45:00,32.6,23.9,29.86,WNW,290,7.0,18.0,70,0.00,,,0.00,Wunderground v.1.15,2013-02-20 05:45:00,
2013-02-20 00:50:00,32.4,24.0,29.86,WNW,300,11.0,20.0,71,0.00,,,0.00,Wunderground v.1.15,2013-02-20 05:50:00,
2013-02-20 00:55:00,32.3,23.6,29.86,West,279,5.0,20.0,70,0.00,,,0.00,Wunderground v.1.15,2013-02-20 05:55:00,
2013-02-20 01:00:00,32.0,23.7,29.86,NW,305,6.0,9.0,71,0.00,,,0.00,Wunderground v.1.15,2013-02-20 06:00:00,
2013-02-20 01:05:00,31.7,23.4,29.86,WNW,291,2.0,17.0,71,0.00,,,0.00,Wunderground v.1.15,2013-02-20 06:05:00,
2013-02-20 01:10:00,31.7,23.7,29.86,West,275,6.0,6.0,72,0.00,,,0.00,Wunderground v.1.15,2013-02-20 06:10:00,
2013-02-20 01:15:00,31.6,23.6,29.87,WNW,299,1.0,11.0,72,0.00,,,0.00,Wunderground v.1.15,2013-02-20 06:15:00,
2013-02-20 01:20:00,31.6,23.9,29.87,WNW,285,0.0,3.0,73,0.00,,,0.00,Wunderground v.1.15,2013-02-20 06:20:00,
2013-02-20 01:25:00,31.6,23.6,29.87,WNW,299,5.0,18.0,72,0.00,,,0.00,Wunderground v.1.15,2013-02-20 06:25:00,
2013-02-20 01:30:00,31.6,23.6,29.87,NW,307,5.0,13.0,72,0.00,,,0.00,Wunderground v.1.15,2013-02-20 06:30:00,
2013-02-20 01:35:00,31.6,23.6,29.87,West,274,5.0,13.0,72,0.00,,,0.00,Wunderground v.1.15,2013-02-20 06:35:00,
2013-02-20 01:40:00,31.5,23.2,29.87,WNW,288,0.0,6.0,71,0.00,,,0.00,Wunderground v.1.15,2013-02-20 06:40:00,
2013-02-20 01:45:00,31.5,23.5,29.88,WSW,242,2.0,12.0,72,0.00,,,0.00,Wunderground v.1.15,2013-02-20 06:45:00,
2013-02-20 01:50:00,31.3,22.3,29.88,WNW,300,2.0,17.0,69,0.00,,,0.00,Wunderground v.1.15,2013-02-20 06:50:00,
2013-02-20 01:55:00,31.3,21.6,29.88,WNW,287,6.0,25.0,67,0.00,,,0.00,Wunderground v.1.15,2013-02-20 06:55:00,
2013-02-20 02:00:00,31.2,21.2,29.87,NW,319,4.0,8.0,66,0.00,,,0.00,Wunderground v.1.15,2013-02-20 07:00:00,
2013-02-20 02:05:00,31.1,20.7,29.88,WNW,286,9.0,28.0,65,0.00,,,0.00,Wunderground v.1.15,2013-02-20 07:05:00,
2013-02-20 02:10:00,31.0,20.6,29.88,WNW,294,1.0,20.0,65,0.00,,,0.00,Wunderground v.1.15,2013-02-20 07:10:00,
2013-02-20 02:15:00,30.8,20.4,29.89,WNW,289,3.0,28.0,65,0.00,,,0.00,Wunderground v.1.15,2013-02-20 07:15:00,
2013-02-20 02:20:00,30.8,20.0,29.89,NW,309,2.0,12.0,64,0.00,,,0.00,Wunderground v.1.15,2013-02-20 07:20:00,
2013-02-20 02:25:00,30.8,20.4,29.89,WNW,302,5.0,17.0,65,0.00,,,0.00,Wunderground v.1.15,2013-02-20 07:25:00,
2013-02-20 02:30:00,30.7,20.0,29.89,WNW,297,3.0,10.0,64,0.00,,,0.00,Wunderground v.1.15,2013-02-20 07:30:00,
2013-02-20 02:35:00,30.6,20.2,29.89,WNW,298,4.0,16.0,65,0.00,,,0.00,Wunderground v.1.15,2013-02-20 07:35:00,
2013-02-20 02:40:00,30.5,20.1,29.89,WNW,284,3.0,15.0,65,0.00,,,0.00,Wunderground v.1.15,2013-02-20 07:40:00,
2013-02-20 02:45:00,30.4,20.4,29.89,NW,304,3.0,18.0,66,0.00,,,0.00,Wunderground v.1.15,2013-02-20 07:45:00,
2013-02-20 02:50:00,30.3,20.3,29.88,WNW,289,9.0,10.0,66,0.00,,,0.00,Wunderground v.1.15,2013-02-20 07:50:00,
2013-02-20 02:55:00,30.1,20.1,29.89,West,278,6.0,17.0,66,0.00,,,0.00,Wunderground v.1.15,2013-02-20 07:55:00,
2013-02-20 03:00:00,30.0,20.0,29.88,WNW,290,14.0,14.0,66,0.00,,,0.00,Wunderground v.1.15,2013-02-20 08:00:00,
2013-02-20 03:05:00,29.9,20.3,29.88,WNW,298,1.0,14.0,67,0.00,,,0.00,Wunderground v.1.15,2013-02-20 08:05:00,
2013-02-20 03:10:00,29.7,20.1,29.88,NW,307,5.0,9.0,67,0.00,,,0.00,Wunderground v.1.15,2013-02-20 08:10:00,
2013-02-20 03:15:00,29.6,20.0,29.89,WNW,286,1.0,17.0,67,0.00,,,0.00,Wunderground v.1.15,2013-02-20 08:15:00,
2013-02-20 03:20:00,29.5,19.9,29.89,WNW,296,4.0,5.0,67,0.00,,,0.00,Wunderground v.1.15,2013-02-20 08:20:00,
2013-02-20 03:25:00,29.3,20.0,29.89,WNW,300,5.0,7.0,68,0.00,,,0.00,Wunderground v.1.15,2013-02-20 08:25:00,
2013-02-20 03:30:00,29.2,19.9,29.89,WNW,283,0.0,2.0,68,0.00,,,0.00,Wunderground v.1.15,2013-02-20 08:30:00,
2013-02-20 03:35:00,29.0,19.4,29.89,West,280,5.0,10.0,67,0.00,,,0.00,Wunderground v.1.15,2013-02-20 08:35:00,
2013-02-20 03:40:00,28.9,19.7,29.89,WNW,284,2.0,10.0,68,0.00,,,0.00,Wunderground v.1.15,2013-02-20 08:40:00,
2013-02-20 03:45:00,28.9,19.3,29.89,WNW,284,1.0,10.0,67,0.00,,,0.00,Wunderground v.1.15,2013-02-20 08:45:00,
2013-02-20 03:50:00,28.9,19.3,29.89,WNW,287,0.0,3.0,67,0.00,,,0.00,Wunderground v.1.15,2013-02-20 08:50:00,
2013-02-20 03:55:00,29.0,19.4,29.89,NW,304,6.0,12.0,67,0.00,,,0.00,Wunderground v.1.15,2013-02-20 08:55:00,
2013-02-20 04:00:00,29.0,19.4,29.90,West,272,3.0,7.0,67,0.00,,,0.00,Wunderground v.1.15,2013-02-20 09:00:00,
2013-02-20 04:05:00,29.1,19.5,29.90,WNW,288,6.0,15.0,67,0.00,,,0.00,Wunderground v.1.15,2013-02-20 09:05:00,
2013-02-20 04:10:00,29.1,19.2,29.90,West,274,4.0,12.0,66,0.00,,,0.00,Wunderground v.1.15,2013-02-20 09:10:00,
2013-02-20 04:15:00,29.2,19.6,29.90,WNW,300,5.0,12.0,67,0.00,,,0.00,Wunderground v.1.15,2013-02-20 09:15:00,
2013-02-20 04:20:00,29.2,19.2,29.91,WNW,295,3.0,7.0,66,0.00,,,0.00,Wunderground v.1.15,2013-02-20 09:20:00,
2013-02-20 04:25:00,29.1,18.4,29.91,WNW,303,3.0,18.0,64,0.00,,,0.00,Wunderground v.1.15,2013-02-20 09:25:00,
2013-02-20 04:30:00,28.9,17.9,29.91,SW,223,14.0,14.0,63,0.00,,,0.00,Wunderground v.1.15,2013-02-20 09:30:00,
2013-02-20 04:35:00,28.7,17.7,29.91,NW,306,0.0,21.0,63,0.00,,,0.00,Wunderground v.1.15,2013-02-20 09:35:00,
2013-02-20 04:40:00,28.5,17.5,29.92,West,271,7.0,7.0,63,0.00,,,0.00,Wunderground v.1.15,2013-02-20 09:40:00,
2013-02-20 04:45:00,28.4,17.4,29.92,WNW,294,0.0,16.0,63,0.00,,,0.00,Wunderground v.1.15,2013-02-20 09:45:00,
2013-02-20 04:50:00,28.3,17.7,29.92,WNW,302,5.0,11.0,64,0.00,,,0.00,Wunderground v.1.15,2013-02-20 09:50:00,
2013-02-20 04:55:00,28.3,17.7,29.92,NW,309,5.0,19.0,64,0.00,,,0.00,Wunderground v.1.15,2013-02-20 09:55:00,
2013-02-20 05:00:00,28.3,17.3,29.93,WNW,296,6.0,10.0,63,0.00,,,0.00,Wunderground v.1.15,2013-02-20 10:00:00,
2013-02-20 05:05:00,28.2,17.6,29.93,WNW,297,3.0,23.0,64,0.00,,,0.00,Wunderground v.1.15,2013-02-20 10:05:00,
2013-02-20 05:10:00,28.2,17.6,29.93,WNW,303,5.0,11.0,64,0.00,,,0.00,Wunderground v.1.15,2013-02-20 10:10:00,
2013-02-20 05:15:00,28.2,17.6,29.93,NW,305,6.0,20.0,64,0.00,,,0.00,Wunderground v.1.15,2013-02-20 10:15:00,
2013-02-20 05:20:00,28.1,17.8,29.94,WNW,287,4.0,14.0,65,0.00,,,0.00,Wunderground v.1.15,2013-02-20 10:20:00,
2013-02-20 05:25:00,28.1,17.8,29.94,WNW,302,1.0,19.0,65,0.00,,,0.00,Wunderground v.1.15,2013-02-20 10:25:00,
2013-02-20 05:30:00,28.0,18.5,29.94,NW,318,5.0,10.0,67,0.00,,,0.00,Wunderground v.1.15,2013-02-20 10:30:00,
2013-02-20 05:36:00,28.0,18.8,29.94,WNW,293,12.0,15.0,68,0.00,,,0.00,Wunderground v.1.15,2013-02-20 10:36:00,
2013-02-20 05:41:00,27.9,19.0,29.94,WNW,291,3.0,11.0,69,0.00,,,0.00,Wunderground v.1.15,2013-02-20 10:41:00,
2013-02-20 05:46:00,27.7,18.8,29.94,WNW,292,6.0,18.0,69,0.00,,,0.00,Wunderground v.1.15,2013-02-20 10:46:00,
2013-02-20 05:51:00,27.6,19.1,29.95,WNW,294,12.0,12.0,70,0.00,,,0.00,Wunderground v.1.15,2013-02-20 10:51:00,
2013-02-20 05:55:00,27.4,18.9,29.95,WNW,292,3.0,18.0,70,0.00,,,0.00,Wunderground v.1.15,2013-02-20 10:55:00,
2013-02-20 06:01:00,27.3,18.8,29.95,NW,310,4.0,17.0,70,0.00,,,0.00,Wunderground v.1.15,2013-02-20 11:01:00,
2013-02-20 06:05:00,27.2,18.0,29.95,WNW,286,2.0,17.0,68,0.00,,,0.00,Wunderground v.1.15,2013-02-20 11:05:00,
2013-02-20 06:10:00,27.1,17.6,29.95,West,279,11.0,13.0,67,0.00,,,0.00,Wunderground v.1.15,2013-02-20 11:10:00,
2013-02-20 06:15:00,27.0,17.1,29.96,WNW,287,5.0,21.0,66,0.00,,,0.00,Wunderground v.1.15,2013-02-20 11:15:00,
2013-02-20 06:21:00,27.0,17.1,29.96,WNW,296,3.0,9.0,66,0.00,,,0.00,Wunderground v.1.15,2013-02-20 11:21:00,
2013-02-20 06:25:00,27.0,16.8,29.96,West,266,4.0,20.0,65,0.00,,,0.00,Wunderground v.1.15,2013-02-20 11:25:00,
2013-02-20 06:30:00,26.9,16.7,29.96,WNW,293,1.0,9.0,65,0.00,,,0.00,Wunderground v.1.15,2013-02-20 11:30:00,
2013-02-20 06:35:00,27.0,16.8,29.96,WNW,299,2.0,16.0,65,0.00,,,0.00,Wunderground v.1.15,2013-02-20 11:35:00,
2013-02-20 06:40:00,27.0,16.8,29.96,WSW,256,6.0,10.0,65,0.00,,,0.00,Wunderground v.1.15,2013-02-20 11:40:00,
2013-02-20 06:45:00,26.9,17.0,29.96,WNW,294,3.0,14.0,66,0.00,,,0.00,Wunderground v.1.15,2013-02-20 11:45:00,
2013-02-20 06:50:00,26.9,17.4,29.96,WNW,293,1.0,9.0,67,0.00,,,0.00,Wunderground v.1.15,2013-02-20 11:50:00,
2013-02-20 06:55:00,26.9,17.4,29.97,NW,304,1.0,14.0,67,0.00,,,0.00,Wunderground v.1.15,2013-02-20 11:55:00,
2013-02-20 07:00:00,26.8,17.3,29.97,WNW,288,2.0,13.0,67,0.00,,,0.00,Wunderground v.1.15,2013-02-20 12:00:00,
2013-02-20 07:05:00,26.8,17.3,29.98,WNW,284,7.0,20.0,67,0.00,,,0.00,Wunderground v.1.15,2013-02-20 12:05:00,
2013-02-20 07:11:00,26.7,17.2,29.98,WNW,292,2.0,6.0,67,0.00,,,0.00,Wunderground v.1.15,2013-02-20 12:11:00,
2013-02-20 07:16:00,26.8,17.3,29.98,West,275,2.0,11.0,67,0.00,,,0.00,Wunderground v.1.15,2013-02-20 12:16:00,
2013-02-20 07:21:00,26.8,17.3,29.99,West,268,3.0,10.0,67,0.00,,,0.00,Wunderground v.1.15,2013-02-20 12:21:00,
2013-02-20 07:26:00,26.8,17.3,29.99,WNW,286,2.0,14.0,67,0.00,,,0.00,Wunderground v.1.15,2013-02-20 12:26:00,
2013-02-20 07:31:00,26.8,17.6,29.99,WNW,288,2.0,6.0,68,0.00,,,0.00,Wunderground v.1.15,2013-02-20 12:31:00,
2013-02-20 07:36:00,26.9,18.1,29.99,WNW,292,6.0,12.0,69,0.00,,,0.00,Wunderground v.1.15,2013-02-20 12:36:00,
2013-02-20 07:41:00,26.9,18.1,29.99,WNW,296,0.0,7.0,69,0.00,,,0.00,Wunderground v.1.15,2013-02-20 12:41:00,
2013-02-20 07:46:00,26.9,18.1,30.00,WNW,283,2.0,7.0,69,0.00,,,0.00,Wunderground v.1.15,2013-02-20 12:46:00,
2013-02-20 07:51:00,26.9,18.1,30.00,WNW,290,3.0,6.0,69,0.00,,,0.00,Wunderground v.1.15,2013-02-20 12:51:00,
2013-02-20 07:56:00,26.8,18.0,30.00,WNW,288,1.0,16.0,69,0.00,,,0.00,Wunderground v.1.15,2013-02-20 12:56:00,
2013-02-20 08:01:00,26.7,17.9,30.00,WNW,284,3.0,16.0,69,0.00,,,0.00,Wunderground v.1.15,2013-02-20 13:01:00,
2013-02-20 08:06:00,26.7,17.9,30.01,WNW,298,9.0,16.0,69,0.00,,,0.00,Wunderground v.1.15,2013-02-20 13:06:00,
2013-02-20 08:11:00,26.7,17.9,30.01,NW,307,16.0,17.0,69,0.00,,,0.00,Wunderground v.1.15,2013-02-20 13:11:00,
2013-02-20 08:16:00,26.7,17.9,30.01,WNW,300,2.0,18.0,69,0.00,,,0.00,Wunderground v.1.15,2013-02-20 13:16:00,
2013-02-20 08:21:00,26.8,18.7,30.01,WNW,297,0.0,11.0,71,0.00,,,0.00,Wunderground v.1.15,2013-02-20 13:21:00,
2013-02-20 08:26:00,26.9,18.4,30.01,NW,304,3.0,12.0,70,0.00,,,0.00,Wunderground v.1.15,2013-02-20 13:26:00,
2013-02-20 08:31:00,27.1,18.6,30.01,WNW,296,4.0,16.0,70,0.00,,,0.00,Wunderground v.1.15,2013-02-20 13:31:00,
2013-02-20 08:36:00,27.2,18.7,30.01,WNW,293,9.0,16.0,70,0.00,,,0.00,Wunderground v.1.15,2013-02-20 13:36:00,
2013-02-20 08:41:00,27.1,18.3,30.01,NW,308,10.0,16.0,69,0.00,,,0.00,Wunderground v.1.15,2013-02-20 13:41:00,
2013-02-20 08:46:00,27.2,18.4,30.01,WNW,294,2.0,16.0,69,0.00,,,0.00,Wunderground v.1.15,2013-02-20 13:46:00,
2013-02-20 08:51:00,27.4,18.2,30.01,NW,306,14.0,15.0,68,0.00,,,0.00,Wunderground v.1.15,2013-02-20 13:51:00,
2013-02-20 08:56:00,27.5,18.3,30.01,West,281,2.0,15.0,68,0.00,,,0.00,Wunderground v.1.15,2013-02-20 13:56:00,
2013-02-20 09:01:00,27.6,18.4,30.01,NW,304,4.0,5.0,68,0.00,,,0.00,Wunderground v.1.15,2013-02-20 14:01:00,
2013-02-20 09:06:00,27.6,18.1,30.01,WNW,291,0.0,12.0,67,0.00,,,0.00,Wunderground v.1.15,2013-02-20 14:06:00,
2013-02-20 09:11:00,27.6,18.4,30.01,WNW,291,2.0,6.0,68,0.00,,,0.00,Wunderground v.1.15,2013-02-20 14:11:00,
2013-02-20 09:16:00,27.6,18.1,30.01,NW,311,4.0,18.0,67,0.00,,,0.00,Wunderground v.1.15,2013-02-20 14:16:00,
2013-02-20 09:21:00,27.5,17.6,30.01,WNW,302,12.0,12.0,66,0.00,,,0.00,Wunderground v.1.15,2013-02-20 14:21:00,
2013-02-20 09:26:00,27.5,18.0,30.01,WNW,291,9.0,16.0,67,0.00,,,0.00,Wunderground v.1.15,2013-02-20 14:26:00,
2013-02-20 09:31:00,27.4,17.5,30.01,West,281,12.0,21.0,66,0.00,,,0.00,Wunderground v.1.15,2013-02-20 14:31:00,
2013-02-20 09:36:00,27.3,17.8,30.01,WNW,299,1.0,21.0,67,0.00,,,0.00,Wunderground v.1.15,2013-02-20 14:36:00,
2013-02-20 09:41:00,27.5,18.3,30.01,West,281,3.0,9.0,68,0.00,,,0.00,Wunderground v.1.15,2013-02-20 14:41:00,
2013-02-20 09:46:00,27.7,18.2,30.00,WNW,291,1.0,18.0,67,0.00,,,0.00,Wunderground v.1.15,2013-02-20 14:46:00,
2013-02-20 09:51:00,27.8,18.6,30.01,WSW,244,3.0,11.0,68,0.00,,,0.00,Wunderground v.1.15,2013-02-20 14:51:00,
2013-02-20 09:56:00,27.9,18.4,30.00,WNW,290,2.0,12.0,67,0.00,,,0.00,Wunderground v.1.15,2013-02-20 14:56:00,
2013-02-20 10:01:00,27.9,18.4,30.01,NW,307,6.0,16.0,67,0.00,,,0.00,Wunderground v.1.15,2013-02-20 15:01:00,
2013-02-20 10:06:00,27.8,17.9,30.01,WNW,292,1.0,20.0,66,0.00,,,0.00,Wunderground v.1.15,2013-02-20 15:06:00,
2013-02-20 10:11:00,27.7,18.2,30.01,WNW,282,8.0,8.0,67,0.00,,,0.00,Wunderground v.1.15,2013-02-20 15:11:00,
2013-02-20 10:16:00,27.7,18.2,30.01,WSW,252,1.0,15.0,67,0.00,,,0.00,Wunderground v.1.15,2013-02-20 15:16:00,
2013-02-20 10:21:00,27.8,18.3,30.01,WNW,282,4.0,12.0,67,0.00,,,0.00,Wunderground v.1.15,2013-02-20 15:21:00,
2013-02-20 10:26:00,27.9,18.4,30.01,NW,305,13.0,19.0,67,0.00,,,0.00,Wunderground v.1.15,2013-02-20 15:26:00,
2013-02-20 10:31:00,27.9,18.0,30.02,WNW,296,12.0,12.0,66,0.00,,,0.00,Wunderground v.1.15,2013-02-20 15:31:00,
2013-02-20 10:36:00,27.9,18.0,30.01,WSW,244,10.0,16.0,66,0.00,,,0.00,Wunderground v.1.15,2013-02-20 15:36:00,
2013-02-20 10:41:00,28.0,17.7,30.02,WNW,301,4.0,22.0,65,0.00,,,0.00,Wunderground v.1.15,2013-02-20 15:41:00,
2013-02-20 10:46:00,27.9,18.0,30.01,WNW,288,3.0,22.0,66,0.00,,,0.00,Wunderground v.1.15,2013-02-20 15:46:00,
2013-02-20 10:51:00,28.1,18.2,30.01,WNW,295,7.0,12.0,66,0.00,,,0.00,Wunderground v.1.15,2013-02-20 15:51:00,
2013-02-20 10:56:00,28.1,18.2,30.01,WNW,298,7.0,20.0,66,0.00,,,0.00,Wunderground v.1.15,2013-02-20 15:56:00,
2013-02-20 11:01:00,28.1,18.5,30.01,NW,309,4.0,13.0,67,0.00,,,0.00,Wunderground v.1.15,2013-02-20 16:01:00,
2013-02-20 11:06:00,28.4,18.8,30.01,WNW,292,6.0,13.0,67,0.00,,,0.00,Wunderground v.1.15,2013-02-20 16:06:00,
2013-02-20 11:11:00,28.7,19.1,30.01,NW,311,4.0,8.0,67,0.00,,,0.00,Wunderground v.1.15,2013-02-20 16:11:00,
2013-02-20 11:16:00,28.9,19.3,30.01,WNW,285,3.0,14.0,67,0.00,,,0.00,Wunderground v.1.15,2013-02-20 16:16:00,
2013-02-20 11:21:00,29.1,19.2,30.01,WNW,285,5.0,6.0,66,0.00,,,0.00,Wunderground v.1.15,2013-02-20 16:21:00,
2013-02-20 11:26:00,29.2,19.6,30.01,WNW,293,2.0,11.0,67,0.00,,,0.00,Wunderground v.1.15,2013-02-20 16:26:00,
2013-02-20 11:31:00,29.4,19.8,30.02,WNW,298,5.0,7.0,67,0.00,,,0.00,Wunderground v.1.15,2013-02-20 16:31:00,
2013-02-20 11:36:00,29.4,19.4,30.02,WNW,284,4.0,15.0,66,0.00,,,0.00,Wunderground v.1.15,2013-02-20 16:36:00,
2013-02-20 11:41:00,29.2,19.6,30.02,WNW,288,3.0,5.0,67,0.00,,,0.00,Wunderground v.1.15,2013-02-20 16:41:00,
2013-02-20 11:46:00,29.2,19.6,30.02,WNW,290,12.0,14.0,67,0.00,,,0.00,Wunderground v.1.15,2013-02-20 16:46:00,
2013-02-20 11:51:00,29.1,19.5,30.02,WNW,284,1.0,6.0,67,0.00,,,0.00,Wunderground v.1.15,2013-02-20 16:51:00,
2013-02-20 11:56:00,29.1,19.5,30.02,WNW,286,0.0,15.0,67,0.00,,,0.00,Wunderground v.1.15,2013-02-20 16:56:00,
2013-02-20 12:01:00,29.1,19.5,30.02,WNW,294,3.0,16.0,67,0.00,,,0.00,Wunderground v.1.15,2013-02-20 17:01:00,
2013-02-20 12:06:00,29.1,19.2,30.02,WNW,291,6.0,18.0,66,0.00,,,0.00,Wunderground v.1.15,2013-02-20 17:06:00,
2013-02-20 12:11:00,29.0,18.7,30.02,NW,306,2.0,12.0,65,0.00,,,0.00,Wunderground v.1.15,2013-02-20 17:11:00,
2013-02-20 12:16:00,28.9,19.0,30.02,WNW,284,0.0,17.0,66,0.00,,,0.00,Wunderground v.1.15,2013-02-20 17:16:00,
2013-02-20 12:21:00,28.9,19.0,30.02,WNW,296,5.0,9.0,66,0.00,,,0.00,Wunderground v.1.15,2013-02-20 17:21:00,
2013-02-20 12:26:00,29.1,19.2,30.02,WNW,292,0.0,11.0,66,0.00,,,0.00,Wunderground v.1.15,2013-02-20 17:26:00,
2013-02-20 12:31:00,29.3,18.6,30.02,West,277,2.0,20.0,64,0.00,,,0.00,Wunderground v.1.15,2013-02-20 17:31:00,
2013-02-20 12:36:00,29.3,18.3,30.02,WSW,257,1.0,20.0,63,0.00,,,0.00,Wunderground v.1.15,2013-02-20 17:36:00,
2013-02-20 12:41:00,29.3,18.6,30.01,WNW,301,6.0,15.0,64,0.00,,,0.00,Wunderground v.1.15,2013-02-20 17:41:00,
2013-02-20 12:46:00,29.5,18.8,30.01,WNW,301,2.0,15.0,64,0.00,,,0.00,Wunderground v.1.15,2013-02-20 17:46:00,
2013-02-20 12:51:00,30.1,19.0,30.01,WNW,296,9.0,12.0,63,0.00,,,0.00,Wunderground v.1.15,2013-02-20 17:51:00,
2013-02-20 12:56:00,30.8,20.0,30.01,West,275,5.0,21.0,64,0.00,,,0.00,Wunderground v.1.15,2013-02-20 17:56:00,
2013-02-20 13:01:00,31.6,20.4,30.00,WNW,293,13.0,14.0,63,0.00,,,0.00,Wunderground v.1.15,2013-02-20 18:01:00,
2013-02-20 13:06:00,32.3,21.1,30.01,WNW,290,6.0,14.0,63,0.00,,,0.00,Wunderground v.1.15,2013-02-20 18:06:00,
2013-02-20 13:11:00,32.7,19.9,30.00,West,260,9.0,16.0,59,0.00,,,0.00,Wunderground v.1.15,2013-02-20 18:11:00,
2013-02-20 13:16:00,32.5,20.5,30.00,WSW,243,4.0,18.0,61,0.00,,,0.00,Wunderground v.1.15,2013-02-20 18:16:00,
2013-02-20 13:21:00,32.6,20.6,30.00,NW,305,4.0,19.0,61,0.00,,,0.00,Wunderground v.1.15,2013-02-20 18:21:00,
2013-02-20 13:26:00,32.9,20.9,30.00,NW,312,10.0,22.0,61,0.00,,,0.00,Wunderground v.1.15,2013-02-20 18:26:00,
2013-02-20 13:31:00,33.5,21.5,30.00,NW,304,4.0,12.0,61,0.00,,,0.00,Wunderground v.1.15,2013-02-20 18:31:00,
2013-02-20 13:36:00,33.9,21.5,30.00,West,273,12.0,18.0,60,0.00,,,0.00,Wunderground v.1.15,2013-02-20 18:36:00,
2013-02-20 13:41:00,33.9,20.7,30.00,NW,309,4.0,19.0,58,0.00,,,0.00,Wunderground v.1.15,2013-02-20 18:41:00,
2013-02-20 13:46:00,34.1,21.7,30.00,West,263,6.0,19.0,60,0.00,,,0.00,Wunderground v.1.15,2013-02-20 18:46:00,
2013-02-20 13:51:00,34.7,22.2,30.00,WSW,257,2.0,11.0,60,0.00,,,0.00,Wunderground v.1.15,2013-02-20 18:51:00,
2013-02-20 13:56:00,34.8,21.9,30.00,WNW,296,2.0,15.0,59,0.00,,,0.00,Wunderground v.1.15,2013-02-20 18:56:00,
2013-02-20 14:01:00,34.4,21.1,30.01,West,265,1.0,18.0,58,0.00,,,0.00,Wunderground v.1.15,2013-02-20 19:01:00,
2013-02-20 14:06:00,33.5,20.3,30.01,WNW,285,5.0,19.0,58,0.00,,,0.00,Wunderground v.1.15,2013-02-20 19:06:00,
2013-02-20 14:11:00,32.8,19.6,30.01,West,259,12.0,18.0,58,0.00,,,0.00,Wunderground v.1.15,2013-02-20 19:11:00,
2013-02-20 14:16:00,32.8,19.6,30.00,WNW,294,4.0,20.0,58,0.00,,,0.00,Wunderground v.1.15,2013-02-20 19:16:00,
2013-02-20 14:21:00,32.9,20.1,30.01,West,277,13.0,19.0,59,0.00,,,0.00,Wunderground v.1.15,2013-02-20 19:21:00,
2013-02-20 14:26:00,32.4,19.3,30.01,WNW,292,7.0,22.0,58,0.00,,,0.00,Wunderground v.1.15,2013-02-20 19:26:00,
2013-02-20 14:31:00,32.8,20.0,30.01,WNW,299,12.0,15.0,59,0.00,,,0.00,Wunderground v.1.15,2013-02-20 19:31:00,
2013-02-20 14:36:00,33.4,20.2,30.00,WNW,298,9.0,18.0,58,0.00,,,0.00,Wunderground v.1.15,2013-02-20 19:36:00,
2013-02-20 14:41:00,33.8,21.0,30.01,WNW,302,10.0,14.0,59,0.00,,,0.00,Wunderground v.1.15,2013-02-20 19:41:00,
2013-02-20 14:46:00,33.7,20.5,30.01,NW,304,6.0,16.0,58,0.00,,,0.00,Wunderground v.1.15,2013-02-20 19:46:00,
2013-02-20 14:51:00,33.2,19.6,30.02,WNW,295,6.0,14.0,57,0.00,,,0.00,Wunderground v.1.15,2013-02-20 19:51:00,
2013-02-20 14:56:00,32.8,20.0,30.02,NW,304,1.0,14.0,59,0.00,,,0.00,Wunderground v.1.15,2013-02-20 19:56:00,
2013-02-20 15:01:00,33.0,20.6,30.02,WNW,287,10.0,13.0,60,0.00,,,0.00,Wunderground v.1.15,2013-02-20 20:01:00,
2013-02-20 15:06:00,33.4,21.0,30.02,WNW,302,4.0,14.0,60,0.00,,,0.00,Wunderground v.1.15,2013-02-20 20:06:00,
2013-02-20 15:11:00,33.3,20.1,30.02,WNW,300,6.0,14.0,58,0.00,,,0.00,Wunderground v.1.15,2013-02-20 20:11:00,
2013-02-20 15:16:00,32.8,19.6,30.03,WNW,300,3.0,17.0,58,0.00,,,0.00,Wunderground v.1.15,2013-02-20 20:16:00,
2013-02-20 15:21:00,32.1,18.6,30.03,WNW,290,18.0,20.0,57,0.00,,,0.00,Wunderground v.1.15,2013-02-20 20:21:00,
2013-02-20 15:26:00,31.7,19.0,30.03,NW,312,13.0,20.0,59,0.00,,,0.00,Wunderground v.1.15,2013-02-20 20:26:00,
2013-02-20 15:31:00,31.6,18.9,30.03,WNW,302,3.0,15.0,59,0.00,,,0.00,Wunderground v.1.15,2013-02-20 20:31:00,
2013-02-20 15:36:00,31.3,18.6,30.04,NW,309,4.0,15.0,59,0.00,,,0.00,Wunderground v.1.15,2013-02-20 20:36:00,
2013-02-20 15:41:00,30.8,17.7,30.04,WNW,294,5.0,16.0,58,0.00,,,0.00,Wunderground v.1.15,2013-02-20 20:41:00,
2013-02-20 15:46:00,30.5,18.3,30.05,WNW,290,11.0,17.0,60,0.00,,,0.00,Wunderground v.1.15,2013-02-20 20:46:00,
2013-02-20 15:51:00,30.1,17.9,30.06,West,268,14.0,14.0,60,0.00,,,0.00,Wunderground v.1.15,2013-02-20 20:51:00,
2013-02-20 15:56:00,29.9,17.7,30.06,WNW,299,3.0,18.0,60,0.00,,,0.00,Wunderground v.1.15,2013-02-20 20:56:00,
2013-02-20 16:01:00,29.6,17.8,30.07,WNW,293,2.0,10.0,61,0.00,,,0.00,Wunderground v.1.15,2013-02-20 21:01:00,
2013-02-20 16:06:00,29.4,18.0,30.07,NW,306,12.0,18.0,62,0.00,,,0.00,Wunderground v.1.15,2013-02-20 21:06:00,
2013-02-20 16:11:00,29.4,18.0,30.07,NW,311,5.0,14.0,62,0.00,,,0.00,Wunderground v.1.15,2013-02-20 21:11:00,
2013-02-20 16:16:00,29.8,18.4,30.07,West,272,11.0,15.0,62,0.00,,,0.00,Wunderground v.1.15,2013-02-20 21:16:00,
2013-02-20 16:21:00,30.4,18.5,30.08,WNW,300,10.0,10.0,61,0.00,,,0.00,Wunderground v.1.15,2013-02-20 21:21:00,
2013-02-20 16:26:00,30.4,18.2,30.07,West,281,14.0,14.0,60,0.00,,,0.00,Wunderground v.1.15,2013-02-20 21:26:00,
2013-02-20 16:31:00,30.3,17.7,30.07,WNW,296,0.0,6.0,59,0.00,,,0.00,Wunderground v.1.15,2013-02-20 21:31:00,
2013-02-20 16:36:00,30.4,18.2,30.07,WNW,302,0.0,12.0,60,0.00,,,0.00,Wunderground v.1.15,2013-02-20 21:36:00,
2013-02-20 16:41:00,30.5,17.9,30.07,West,269,9.0,22.0,59,0.00,,,0.00,Wunderground v.1.15,2013-02-20 21:41:00,
2013-02-20 16:46:00,30.2,17.6,30.08,West,277,4.0,22.0,59,0.00,,,0.00,Wunderground v.1.15,2013-02-20 21:46:00,
2013-02-20 16:51:00,29.9,16.9,30.08,WNW,285,6.0,9.0,58,0.00,,,0.00,Wunderground v.1.15,2013-02-20 21:51:00,
2013-02-20 16:56:00,29.4,16.4,30.08,NW,310,10.0,22.0,58,0.00,,,0.00,Wunderground v.1.15,2013-02-20 21:56:00,
2013-02-20 17:01:00,28.7,16.2,30.09,NW,317,7.0,18.0,59,0.00,,,0.00,Wunderground v.1.15,2013-02-20 22:01:00,
2013-02-20 17:06:00,28.3,16.6,30.10,NW,323,4.0,18.0,61,0.00,,,0.00,Wunderground v.1.15,2013-02-20 22:06:00,
2013-02-20 17:11:00,27.9,16.9,30.10,NW,317,1.0,14.0,63,0.00,,,0.00,Wunderground v.1.15,2013-02-20 22:11:00,
2013-02-20 17:16:00,27.6,16.6,30.10,NW,311,3.0,14.0,63,0.00,,,0.00,Wunderground v.1.15,2013-02-20 22:16:00,
2013-02-20 17:21:00,27.4,16.8,30.10,WNW,297,2.0,5.0,64,0.00,,,0.00,Wunderground v.1.15,2013-02-20 22:21:00,
2013-02-20 17:26:00,27.1,16.5,30.11,WNW,295,0.0,10.0,64,0.00,,,0.00,Wunderground v.1.15,2013-02-20 22:26:00,
2013-02-20 17:31:00,26.8,15.9,30.11,WNW,302,4.0,12.0,63,0.00,,,0.00,Wunderground v.1.15,2013-02-20 22:31:00,
2013-02-20 17:36:00,26.5,16.0,30.11,WNW,298,14.0,15.0,64,0.00,,,0.00,Wunderground v.1.15,2013-02-20 22:36:00,
2013-02-20 17:41:00,26.2,15.7,30.12,NW,305,2.0,5.0,64,0.00,,,0.00,Wunderground v.1.15,2013-02-20 22:41:00,
2013-02-20 17:46:00,25.9,15.4,30.12,NW,311,5.0,13.0,64,0.00,,,0.00,Wunderground v.1.15,2013-02-20 22:46:00,
2013-02-20 17:51:00,25.5,15.0,30.12,WNW,292,6.0,7.0,64,0.00,,,0.00,Wunderground v.1.15,2013-02-20 22:51:00,
2013-02-20 17:56:00,25.2,14.7,30.12,WNW,288,7.0,13.0,64,0.00,,,0.00,Wunderground v.1.15,2013-02-20 22:56:00,
2013-02-20 18:01:00,24.9,14.4,30.13,West,281,9.0,12.0,64,0.00,,,0.00,Wunderground v.1.15,2013-02-20 23:01:00,
2013-02-20 18:06:00,24.7,14.2,30.13,NW,307,4.0,16.0,64,0.00,,,0.00,Wunderground v.1.15,2013-02-20 23:06:00,
2013-02-20 18:11:00,24.4,13.6,30.13,WNW,292,7.0,15.0,63,0.00,,,0.00,Wunderground v.1.15,2013-02-20 23:11:00,
2013-02-20 18:16:00,24.3,13.5,30.13,WNW,288,10.0,15.0,63,0.00,,,0.00,Wunderground v.1.15,2013-02-20 23:16:00,
2013-02-20 18:21:00,24.2,13.0,30.14,WNW,298,0.0,6.0,62,0.00,,,0.00,Wunderground v.1.15,2013-02-20 23:21:00,
2013-02-20 18:26:00,24.2,13.0,30.14,WNW,292,1.0,14.0,62,0.00,,,0.00,Wunderground v.1.15,2013-02-20 23:26:00,
2013-02-20 18:31:00,24.2,13.0,30.14,WNW,288,1.0,11.0,62,0.00,,,0.00,Wunderground v.1.15,2013-02-20 23:31:00,
2013-02-20 18:36:00,24.1,12.9,30.14,WNW,301,3.0,11.0,62,0.00,,,0.00,Wunderground v.1.15,2013-02-20 23:36:00,
2013-02-20 18:41:00,24.1,12.9,30.14,WNW,298,4.0,12.0,62,0.00,,,0.00,Wunderground v.1.15,2013-02-20 23:41:00,
2013-02-20 18:46:00,24.0,12.9,30.14,West,264,1.0,13.0,62,0.00,,,0.00,Wunderground v.1.15,2013-02-20 23:46:00,
2013-02-20 18:51:00,24.0,12.5,30.14,WNW,288,3.0,14.0,61,0.00,,,0.00,Wunderground v.1.15,2013-02-20 23:51:00,
2013-02-20 18:56:00,23.9,12.4,30.13,WNW,296,5.0,15.0,61,0.00,,,0.00,Wunderground v.1.15,2013-02-20 23:56:00,
2013-02-20 19:01:00,23.8,12.7,30.13,WNW,293,2.0,11.0,62,0.00,,,0.00,Wunderground v.1.15,2013-02-21 00:01:00,
2013-02-20 19:06:00,23.7,12.6,30.14,WNW,288,1.0,17.0,62,0.00,,,0.00,Wunderground v.1.15,2013-02-21 00:06:00,
2013-02-20 19:11:00,23.6,12.5,30.14,NW,313,5.0,13.0,62,0.00,,,0.00,Wunderground v.1.15,2013-02-21 00:11:00,
2013-02-20 19:16:00,23.5,12.4,30.14,WNW,284,3.0,15.0,62,0.00,,,0.00,Wunderground v.1.15,2013-02-21 00:16:00,
2013-02-20 19:21:00,23.4,12.6,30.14,WNW,288,1.0,10.0,63,0.00,,,0.00,Wunderground v.1.15,2013-02-21 00:21:00,
2013-02-20 19:26:00,23.3,12.6,30.14,West,279,11.0,11.0,63,0.00,,,0.00,Wunderground v.1.15,2013-02-21 00:26:00,
2013-02-20 19:31:00,23.2,12.1,30.14,West,275,5.0,7.0,62,0.00,,,0.00,Wunderground v.1.15,2013-02-21 00:31:00,
2013-02-20 19:36:00,23.1,12.4,30.14,WNW,286,0.0,15.0,63,0.00,,,0.00,Wunderground v.1.15,2013-02-21 00:36:00,
2013-02-20 19:41:00,23.1,12.4,30.14,WNW,294,4.0,11.0,63,0.00,,,0.00,Wunderground v.1.15,2013-02-21 00:41:00,
2013-02-20 19:46:00,23.0,12.3,30.13,WNW,299,3.0,16.0,63,0.00,,,0.00,Wunderground v.1.15,2013-02-21 00:46:00,
2013-02-20 19:51:00,22.9,12.2,30.13,WNW,296,11.0,17.0,63,0.00,,,0.00,Wunderground v.1.15,2013-02-21 00:51:00,
2013-02-20 19:56:00,22.9,12.2,30.13,NW,304,3.0,17.0,63,0.00,,,0.00,Wunderground v.1.15,2013-02-21 00:56:00,
2013-02-20 20:01:00,22.9,12.5,30.13,WNW,298,5.0,10.0,64,0.00,,,0.00,Wunderground v.1.15,2013-02-21 01:01:00,
2013-02-20 20:06:00,22.8,12.1,30.13,WNW,295,2.0,13.0,63,0.00,,,0.00,Wunderground v.1.15,2013-02-21 01:06:00,
2013-02-20 20:11:00,22.7,12.0,30.13,WNW,290,3.0,15.0,63,0.00,,,0.00,Wunderground v.1.15,2013-02-21 01:11:00,
2013-02-20 20:16:00,22.7,12.3,30.14,West,277,5.0,15.0,64,0.00,,,0.00,Wunderground v.1.15,2013-02-21 01:16:00,
2013-02-20 20:21:00,22.7,12.0,30.14,WNW,299,7.0,11.0,63,0.00,,,0.00,Wunderground v.1.15,2013-02-21 01:21:00,
2013-02-20 20:26:00,22.7,12.3,30.14,WNW,289,1.0,13.0,64,0.00,,,0.00,Wunderground v.1.15,2013-02-21 01:26:00,
2013-02-20 20:31:00,22.7,12.0,30.14,WNW,294,2.0,9.0,63,0.00,,,0.00,Wunderground v.1.15,2013-02-21 01:31:00,
2013-02-20 20:36:00,22.7,12.3,30.14,WNW,293,0.0,11.0,64,0.00,,,0.00,Wunderground v.1.15,2013-02-21 01:36:00,
2013-02-20 20:41:00,22.6,12.2,30.15,WNW,288,0.0,7.0,64,0.00,,,0.00,Wunderground v.1.15,2013-02-21 01:41:00,
2013-02-20 20:46:00,22.6,12.6,30.14,WNW,284,10.0,10.0,65,0.00,,,0.00,Wunderground v.1.15,2013-02-21 01:46:00,
2013-02-20 20:51:00,22.6,12.9,30.14,West,271,3.0,20.0,66,0.00,,,0.00,Wunderground v.1.15,2013-02-21 01:51:00,
2013-02-20 20:56:00,22.5,12.8,30.15,WNW,290,1.0,20.0,66,0.00,,,0.00,Wunderground v.1.15,2013-02-21 01:56:00,
2013-02-20 21:01:00,22.5,12.8,30.15,WNW,289,2.0,9.0,66,0.00,,,0.00,Wunderground v.1.15,2013-02-21 02:01:00,
2013-02-20 21:06:00,22.5,12.8,30.15,WNW,293,0.0,11.0,66,0.00,,,0.00,Wunderground v.1.15,2013-02-21 02:06:00,
2013-02-20 21:11:00,22.6,12.9,30.15,West,277,2.0,10.0,66,0.00,,,0.00,Wunderground v.1.15,2013-02-21 02:11:00,
2013-02-20 21:16:00,22.6,13.3,30.15,West,275,3.0,10.0,67,0.00,,,0.00,Wunderground v.1.15,2013-02-21 02:16:00,
2013-02-20 21:21:00,22.7,13.0,30.16,West,271,3.0,10.0,66,0.00,,,0.00,Wunderground v.1.15,2013-02-21 02:21:00,
2013-02-20 21:26:00,22.7,13.0,30.16,West,276,1.0,12.0,66,0.00,,,0.00,Wunderground v.1.15,2013-02-21 02:26:00,
2013-02-20 21:31:00,22.8,13.5,30.16,West,272,0.0,4.0,67,0.00,,,0.00,Wunderground v.1.15,2013-02-21 02:31:00,
2013-02-20 21:36:00,22.8,13.1,30.16,WNW,290,5.0,10.0,66,0.00,,,0.00,Wunderground v.1.15,2013-02-21 02:36:00,
2013-02-20 21:41:00,22.8,13.5,30.15,WNW,291,3.0,8.0,67,0.00,,,0.00,Wunderground v.1.15,2013-02-21 02:41:00,
2013-02-20 21:46:00,22.8,13.1,30.15,WNW,290,2.0,16.0,66,0.00,,,0.00,Wunderground v.1.15,2013-02-21 02:46:00,
2013-02-20 21:51:00,22.9,13.2,30.16,WNW,298,2.0,11.0,66,0.00,,,0.00,Wunderground v.1.15,2013-02-21 02:51:00,
2013-02-20 21:56:00,22.9,13.6,30.16,West,267,3.0,11.0,67,0.00,,,0.00,Wunderground v.1.15,2013-02-21 02:56:00,
2013-02-20 22:01:00,23.0,13.3,30.16,SW,235,1.0,15.0,66,0.00,,,0.00,Wunderground v.1.15,2013-02-21 03:01:00,
2013-02-20 22:06:00,23.0,13.7,30.15,WNW,288,11.0,15.0,67,0.00,,,0.00,Wunderground v.1.15,2013-02-21 03:06:00,
2013-02-20 22:11:00,23.1,13.8,30.16,WNW,296,10.0,10.0,67,0.00,,,0.00,Wunderground v.1.15,2013-02-21 03:11:00,
2013-02-20 22:16:00,23.1,13.8,30.16,WNW,288,3.0,15.0,67,0.00,,,0.00,Wunderground v.1.15,2013-02-21 03:16:00,
2013-02-20 22:21:00,23.2,13.9,30.16,WNW,293,10.0,10.0,67,0.00,,,0.00,Wunderground v.1.15,2013-02-21 03:21:00,
2013-02-20 22:26:00,23.3,14.0,30.16,West,281,4.0,15.0,67,0.00,,,0.00,Wunderground v.1.15,2013-02-21 03:26:00,
2013-02-20 22:31:00,23.3,14.0,30.16,WNW,284,3.0,10.0,67,0.00,,,0.00,Wunderground v.1.15,2013-02-21 03:31:00,
2013-02-20 22:36:00,23.3,14.0,30.17,WNW,282,4.0,14.0,67,0.00,,,0.00,Wunderground v.1.15,2013-02-21 03:36:00,
2013-02-20 22:41:00,23.3,14.0,30.17,WNW,290,1.0,13.0,67,0.00,,,0.00,Wunderground v.1.15,2013-02-21 03:41:00,
2013-02-20 22:46:00,23.3,14.0,30.16,West,281,7.0,16.0,67,0.00,,,0.00,Wunderground v.1.15,2013-02-21 03:46:00,
2013-02-20 22:51:00,23.3,14.0,30.17,WNW,282,0.0,4.0,67,0.00,,,0.00,Wunderground v.1.15,2013-02-21 03:51:00,
2013-02-20 22:56:00,23.3,14.0,30.17,WNW,286,4.0,10.0,67,0.00,,,0.00,Wunderground v.1.15,2013-02-21 03:56:00,
2013-02-20 23:01:00,23.3,14.0,30.16,WNW,286,5.0,7.0,67,0.00,,,0.00,Wunderground v.1.15,2013-02-21 04:01:00,
2013-02-20 23:06:00,23.3,14.0,30.16,West,272,4.0,13.0,67,0.00,,,0.00,Wunderground v.1.15,2013-02-21 04:06:00,
2013-02-20 23:11:00,23.3,14.0,30.16,WNW,289,6.0,11.0,67,0.00,,,0.00,Wunderground v.1.15,2013-02-21 04:11:00,
2013-02-20 23:16:00,23.2,13.9,30.16,WNW,293,3.0,12.0,67,0.00,,,0.00,Wunderground v.1.15,2013-02-21 04:16:00,
2013-02-20 23:21:00,23.2,13.9,30.15,WNW,290,1.0,12.0,67,0.00,,,0.00,Wunderground v.1.15,2013-02-21 04:21:00,
2013-02-20 23:26:00,23.1,13.8,30.16,WNW,302,1.0,12.0,67,0.00,,,0.00,Wunderground v.1.15,2013-02-21 04:26:00,
2013-02-20 23:31:00,23.1,13.8,30.15,WNW,292,5.0,12.0,67,0.00,,,0.00,Wunderground v.1.15,2013-02-21 04:31:00,
2013-02-20 23:36:00,23.1,13.8,30.16,WNW,294,10.0,12.0,67,0.00,,,0.00,Wunderground v.1.15,2013-02-21 04:36:00,
2013-02-20 23:41:00,23.1,13.8,30.16,WNW,284,2.0,5.0,67,0.00,,,0.00,Wunderground v.1.15,2013-02-21 04:41:00,
2013-02-20 23:46:00,23.1,13.8,30.16,WNW,286,11.0,11.0,67,0.00,,,0.00,Wunderground v.1.15,2013-02-21 04:46:00,
2013-02-20 23:51:00,23.1,14.1,30.15,NW,304,3.0,16.0,68,0.00,,,0.00,Wunderground v.1.15,2013-02-21 04:51:00,
2013-02-20 23:56:00,23.1,14.1,30.15,NW,313,9.0,16.0,68,0.00,,,0.00,Wunderground v.1.15,2013-02-21 04:56:00,